sensor_id;sensor_type;location;lat;lon;timestamp;P1;durP1;ratioP1;P2;durP2;ratioP2
34926;SDS011;21132;48.308;14.274;2022-09-09T00:00:12;38.05;;;6.28;;
34926;SDS011;21132;48.308;14.274;2022-09-09T00:02:41;16.40;;;4.20;;
34926;SDS011;21132;48.308;14.274;2022-09-09T00:08:19;18.98;;;3.17;;
34926;SDS011;21132;48.308;14.274;2022-09-09T00:10:52;3.90;;;2.65;;
34926;SDS011;21132;48.308;14.274;2022-09-09T00:21:50;2.58;;;2.20;;
34926;SDS011;21132;48.308;14.274;2022-09-09T00:24:38;4.70;;;2.72;;
34926;SDS011;21132;48.308;14.274;2022-09-09T00:30:17;3.17;;;2.70;;
34926;SDS011;21132;48.308;14.274;2022-09-09T00:33:10;4.03;;;2.53;;
34926;SDS011;21132;48.308;14.274;2022-09-09T00:35:47;11.77;;;4.53;;
34926;SDS011;21132;48.308;14.274;2022-09-09T00:38:26;9.27;;;3.85;;
34926;SDS011;21132;48.308;14.274;2022-09-09T00:41:49;13.68;;;3.58;;
34926;SDS011;21132;48.308;14.274;2022-09-09T00:43:57;8.82;;;3.65;;
34926;SDS011;21132;48.308;14.274;2022-09-09T00:57:54;13.85;;;3.88;;
34926;SDS011;21132;48.308;14.274;2022-09-09T01:00:24;8.02;;;3.42;;
34926;SDS011;21132;48.308;14.274;2022-09-09T01:08:39;13.30;;;4.32;;
34926;SDS011;21132;48.308;14.274;2022-09-09T01:11:10;16.42;;;4.53;;
34926;SDS011;21132;48.308;14.274;2022-09-09T01:16:42;8.35;;;3.13;;
34926;SDS011;21132;48.308;14.274;2022-09-09T01:19:10;8.57;;;3.05;;
34926;SDS011;21132;48.308;14.274;2022-09-09T01:21:57;9.32;;;3.08;;
34926;SDS011;21132;48.308;14.274;2022-09-09T01:24:55;10.60;;;3.20;;
34926;SDS011;21132;48.308;14.274;2022-09-09T01:29:48;5.10;;;2.05;;
34926;SDS011;21132;48.308;14.274;2022-09-09T01:35:11;5.95;;;2.28;;
34926;SDS011;21132;48.308;14.274;2022-09-09T01:37:44;5.68;;;1.80;;
34926;SDS011;21132;48.308;14.274;2022-09-09T01:40:10;4.55;;;2.45;;
34926;SDS011;21132;48.308;14.274;2022-09-09T01:42:36;3.20;;;2.03;;
34926;SDS011;21132;48.308;14.274;2022-09-09T01:45:02;2.03;;;1.63;;
34926;SDS011;21132;48.308;14.274;2022-09-09T01:47:29;3.30;;;1.88;;
34926;SDS011;21132;48.308;14.274;2022-09-09T01:49:54;2.95;;;1.73;;
34926;SDS011;21132;48.308;14.274;2022-09-09T01:52:23;3.33;;;1.75;;
34926;SDS011;21132;48.308;14.274;2022-09-09T01:54:49;3.20;;;1.58;;
34926;SDS011;21132;48.308;14.274;2022-09-09T01:57:17;2.90;;;1.80;;
34926;SDS011;21132;48.308;14.274;2022-09-09T02:00:05;2.67;;;1.70;;
34926;SDS011;21132;48.308;14.274;2022-09-09T02:08:08;3.15;;;1.95;;
34926;SDS011;21132;48.308;14.274;2022-09-09T02:13:07;3.83;;;2.17;;
34926;SDS011;21132;48.308;14.274;2022-09-09T02:18:38;3.28;;;1.90;;
34926;SDS011;21132;48.308;14.274;2022-09-09T02:21:05;2.47;;;1.60;;
34926;SDS011;21132;48.308;14.274;2022-09-09T02:23:33;5.63;;;1.90;;
34926;SDS011;21132;48.308;14.274;2022-09-09T02:26:00;2.47;;;1.85;;
34926;SDS011;21132;48.308;14.274;2022-09-09T02:28:29;12.07;;;2.65;;
34926;SDS011;21132;48.308;14.274;2022-09-09T02:30:57;4.25;;;2.25;;
34926;SDS011;21132;48.308;14.274;2022-09-09T02:33:28;4.63;;;2.22;;
34926;SDS011;21132;48.308;14.274;2022-09-09T02:36:02;5.55;;;2.40;;
34926;SDS011;21132;48.308;14.274;2022-09-09T02:38:33;11.15;;;1.92;;
34926;SDS011;21132;48.308;14.274;2022-09-09T02:41:02;3.83;;;2.00;;
34926;SDS011;21132;48.308;14.274;2022-09-09T02:43:32;3.80;;;2.03;;
34926;SDS011;21132;48.308;14.274;2022-09-09T02:51:14;3.72;;;2.10;;
34926;SDS011;21132;48.308;14.274;2022-09-09T02:56:20;4.20;;;2.45;;
34926;SDS011;21132;48.308;14.274;2022-09-09T02:58:49;4.97;;;3.08;;
34926;SDS011;21132;48.308;14.274;2022-09-09T03:01:17;3.17;;;2.33;;
34926;SDS011;21132;48.308;14.274;2022-09-09T03:03:43;2.83;;;2.05;;
34926;SDS011;21132;48.308;14.274;2022-09-09T03:06:09;4.82;;;2.10;;
34926;SDS011;21132;48.308;14.274;2022-09-09T03:08:37;4.50;;;1.77;;
34926;SDS011;21132;48.308;14.274;2022-09-09T03:11:03;4.63;;;1.80;;
34926;SDS011;21132;48.308;14.274;2022-09-09T03:13:29;3.63;;;1.80;;
34926;SDS011;21132;48.308;14.274;2022-09-09T03:15:55;4.15;;;1.92;;
34926;SDS011;21132;48.308;14.274;2022-09-09T03:18:21;11.73;;;3.55;;
34926;SDS011;21132;48.308;14.274;2022-09-09T03:20:47;12.55;;;4.72;;
34926;SDS011;21132;48.308;14.274;2022-09-09T03:23:13;9.32;;;5.03;;
34926;SDS011;21132;48.308;14.274;2022-09-09T03:25:39;17.30;;;6.18;;
34926;SDS011;21132;48.308;14.274;2022-09-09T03:28:12;13.52;;;8.15;;
34926;SDS011;21132;48.308;14.274;2022-09-09T03:30:37;15.27;;;8.23;;
34926;SDS011;21132;48.308;14.274;2022-09-09T03:33:03;22.38;;;8.90;;
34926;SDS011;21132;48.308;14.274;2022-09-09T03:35:29;16.55;;;8.38;;
34926;SDS011;21132;48.308;14.274;2022-09-09T03:37:55;14.75;;;8.30;;
34926;SDS011;21132;48.308;14.274;2022-09-09T03:40:20;17.27;;;8.65;;
34926;SDS011;21132;48.308;14.274;2022-09-09T03:42:47;20.83;;;9.18;;
34926;SDS011;21132;48.308;14.274;2022-09-09T03:45:13;22.10;;;8.70;;
34926;SDS011;21132;48.308;14.274;2022-09-09T03:47:39;11.95;;;7.60;;
34926;SDS011;21132;48.308;14.274;2022-09-09T03:50:05;11.68;;;6.35;;
34926;SDS011;21132;48.308;14.274;2022-09-09T03:52:37;9.32;;;5.68;;
34926;SDS011;21132;48.308;14.274;2022-09-09T03:55:06;9.52;;;6.68;;
34926;SDS011;21132;48.308;14.274;2022-09-09T03:57:32;11.40;;;7.13;;
34926;SDS011;21132;48.308;14.274;2022-09-09T04:00:01;18.50;;;6.65;;
34926;SDS011;21132;48.308;14.274;2022-09-09T04:02:30;12.75;;;7.75;;
34926;SDS011;21132;48.308;14.274;2022-09-09T04:04:56;13.07;;;7.63;;
34926;SDS011;21132;48.308;14.274;2022-09-09T04:07:22;11.23;;;8.27;;
34926;SDS011;21132;48.308;14.274;2022-09-09T04:09:47;13.30;;;9.18;;
34926;SDS011;21132;48.308;14.274;2022-09-09T04:12:13;12.80;;;8.35;;
34926;SDS011;21132;48.308;14.274;2022-09-09T04:14:39;13.25;;;6.85;;
34926;SDS011;21132;48.308;14.274;2022-09-09T04:17:05;12.52;;;8.13;;
34926;SDS011;21132;48.308;14.274;2022-09-09T04:19:31;10.15;;;6.60;;
34926;SDS011;21132;48.308;14.274;2022-09-09T04:21:57;9.05;;;6.20;;
34926;SDS011;21132;48.308;14.274;2022-09-09T04:24:24;10.13;;;6.68;;
34926;SDS011;21132;48.308;14.274;2022-09-09T04:26:52;8.38;;;6.15;;
34926;SDS011;21132;48.308;14.274;2022-09-09T04:29:18;10.85;;;7.07;;
34926;SDS011;21132;48.308;14.274;2022-09-09T04:31:44;13.65;;;8.55;;
34926;SDS011;21132;48.308;14.274;2022-09-09T04:34:09;14.88;;;8.60;;
34926;SDS011;21132;48.308;14.274;2022-09-09T04:36:35;13.63;;;9.18;;
34926;SDS011;21132;48.308;14.274;2022-09-09T04:39:01;10.82;;;7.57;;
34926;SDS011;21132;48.308;14.274;2022-09-09T04:41:27;9.73;;;7.50;;
34926;SDS011;21132;48.308;14.274;2022-09-09T04:43:53;10.15;;;7.00;;
34926;SDS011;21132;48.308;14.274;2022-09-09T04:46:20;12.73;;;7.97;;
34926;SDS011;21132;48.308;14.274;2022-09-09T04:48:48;11.82;;;7.63;;
34926;SDS011;21132;48.308;14.274;2022-09-09T04:51:15;15.45;;;8.88;;
34926;SDS011;21132;48.308;14.274;2022-09-09T04:53:41;13.65;;;8.90;;
34926;SDS011;21132;48.308;14.274;2022-09-09T04:56:11;13.10;;;7.93;;
34926;SDS011;21132;48.308;14.274;2022-09-09T04:58:38;11.80;;;7.43;;
34926;SDS011;21132;48.308;14.274;2022-09-09T05:01:18;9.02;;;6.63;;
34926;SDS011;21132;48.308;14.274;2022-09-09T05:03:46;10.20;;;7.18;;
34926;SDS011;21132;48.308;14.274;2022-09-09T05:06:16;9.18;;;6.20;;
34926;SDS011;21132;48.308;14.274;2022-09-09T05:08:44;9.93;;;7.03;;
34926;SDS011;21132;48.308;14.274;2022-09-09T05:11:29;13.25;;;7.47;;
34926;SDS011;21132;48.308;14.274;2022-09-09T05:13:57;10.18;;;6.63;;
34926;SDS011;21132;48.308;14.274;2022-09-09T05:16:23;10.02;;;5.20;;
34926;SDS011;21132;48.308;14.274;2022-09-09T05:18:49;9.68;;;5.50;;
34926;SDS011;21132;48.308;14.274;2022-09-09T05:21:19;9.45;;;5.90;;
34926;SDS011;21132;48.308;14.274;2022-09-09T05:23:46;10.35;;;5.18;;
34926;SDS011;21132;48.308;14.274;2022-09-09T05:26:14;10.80;;;4.28;;
34926;SDS011;21132;48.308;14.274;2022-09-09T05:28:42;7.00;;;4.25;;
34926;SDS011;21132;48.308;14.274;2022-09-09T05:31:08;8.77;;;5.03;;
34926;SDS011;21132;48.308;14.274;2022-09-09T05:33:37;10.10;;;6.43;;
34926;SDS011;21132;48.308;14.274;2022-09-09T05:36:09;14.52;;;8.98;;
34926;SDS011;21132;48.308;14.274;2022-09-09T05:38:38;13.25;;;8.30;;
34926;SDS011;21132;48.308;14.274;2022-09-09T05:41:04;14.95;;;10.57;;
34926;SDS011;21132;48.308;14.274;2022-09-09T05:43:30;16.35;;;9.30;;
34926;SDS011;21132;48.308;14.274;2022-09-09T05:48:34;12.02;;;7.93;;
34926;SDS011;21132;48.308;14.274;2022-09-09T05:51:04;13.25;;;7.75;;
34926;SDS011;21132;48.308;14.274;2022-09-09T05:53:32;13.13;;;7.55;;
34926;SDS011;21132;48.308;14.274;2022-09-09T05:56:02;18.33;;;7.07;;
34926;SDS011;21132;48.308;14.274;2022-09-09T05:58:30;11.43;;;8.02;;
34926;SDS011;21132;48.308;14.274;2022-09-09T06:01:00;11.18;;;7.35;;
34926;SDS011;21132;48.308;14.274;2022-09-09T06:03:30;16.45;;;8.10;;
34926;SDS011;21132;48.308;14.274;2022-09-09T06:05:57;15.68;;;9.07;;
34926;SDS011;21132;48.308;14.274;2022-09-09T06:08:24;12.30;;;8.27;;
34926;SDS011;21132;48.308;14.274;2022-09-09T06:10:50;15.98;;;7.88;;
34926;SDS011;21132;48.308;14.274;2022-09-09T06:13:17;7.72;;;5.50;;
34926;SDS011;21132;48.308;14.274;2022-09-09T06:15:50;8.13;;;5.28;;
34926;SDS011;21132;48.308;14.274;2022-09-09T06:18:17;11.35;;;5.30;;
34926;SDS011;21132;48.308;14.274;2022-09-09T06:20:52;12.63;;;6.00;;
34926;SDS011;21132;48.308;14.274;2022-09-09T06:23:26;9.77;;;6.25;;
34926;SDS011;21132;48.308;14.274;2022-09-09T06:28:38;15.45;;;6.47;;
34926;SDS011;21132;48.308;14.274;2022-09-09T06:31:04;11.63;;;6.40;;
34926;SDS011;21132;48.308;14.274;2022-09-09T06:33:35;11.45;;;5.68;;
34926;SDS011;21132;48.308;14.274;2022-09-09T06:36:04;8.55;;;5.47;;
34926;SDS011;21132;48.308;14.274;2022-09-09T06:38:30;12.38;;;5.78;;
34926;SDS011;21132;48.308;14.274;2022-09-09T06:40:57;9.77;;;6.68;;
34926;SDS011;21132;48.308;14.274;2022-09-09T06:43:24;11.35;;;6.55;;
34926;SDS011;21132;48.308;14.274;2022-09-09T06:45:58;17.80;;;6.75;;
34926;SDS011;21132;48.308;14.274;2022-09-09T06:48:25;16.58;;;6.45;;
34926;SDS011;21132;48.308;14.274;2022-09-09T06:51:09;10.70;;;6.03;;
34926;SDS011;21132;48.308;14.274;2022-09-09T06:53:38;11.68;;;5.75;;
34926;SDS011;21132;48.308;14.274;2022-09-09T06:58:39;11.23;;;6.15;;
34926;SDS011;21132;48.308;14.274;2022-09-09T07:01:08;12.00;;;7.30;;
34926;SDS011;21132;48.308;14.274;2022-09-09T07:03:35;10.93;;;6.70;;
34926;SDS011;21132;48.308;14.274;2022-09-09T07:06:01;15.63;;;7.63;;
34926;SDS011;21132;48.308;14.274;2022-09-09T07:08:27;12.70;;;6.68;;
34926;SDS011;21132;48.308;14.274;2022-09-09T07:10:53;11.82;;;6.47;;
34926;SDS011;21132;48.308;14.274;2022-09-09T07:13:20;14.55;;;7.07;;
34926;SDS011;21132;48.308;14.274;2022-09-09T07:15:50;12.70;;;6.00;;
34926;SDS011;21132;48.308;14.274;2022-09-09T07:18:17;13.25;;;6.43;;
34926;SDS011;21132;48.308;14.274;2022-09-09T07:20:52;9.88;;;6.30;;
34926;SDS011;21132;48.308;14.274;2022-09-09T07:23:20;12.75;;;6.10;;
34926;SDS011;21132;48.308;14.274;2022-09-09T07:25:45;8.98;;;5.72;;
34926;SDS011;21132;48.308;14.274;2022-09-09T07:28:12;11.77;;;5.90;;
34926;SDS011;21132;48.308;14.274;2022-09-09T07:30:38;12.55;;;6.25;;
34926;SDS011;21132;48.308;14.274;2022-09-09T07:33:05;11.18;;;6.07;;
34926;SDS011;21132;48.308;14.274;2022-09-09T07:35:31;11.75;;;5.78;;
34926;SDS011;21132;48.308;14.274;2022-09-09T07:37:57;12.80;;;6.00;;
34926;SDS011;21132;48.308;14.274;2022-09-09T07:40:23;15.60;;;6.25;;
34926;SDS011;21132;48.308;14.274;2022-09-09T07:42:49;18.90;;;7.32;;
34926;SDS011;21132;48.308;14.274;2022-09-09T07:45:15;11.13;;;5.97;;
34926;SDS011;21132;48.308;14.274;2022-09-09T07:47:41;10.55;;;6.80;;
34926;SDS011;21132;48.308;14.274;2022-09-09T07:50:09;15.07;;;7.20;;
34926;SDS011;21132;48.308;14.274;2022-09-09T07:52:36;13.35;;;7.82;;
34926;SDS011;21132;48.308;14.274;2022-09-09T07:55:02;15.50;;;8.35;;
34926;SDS011;21132;48.308;14.274;2022-09-09T07:57:29;17.15;;;8.23;;
34926;SDS011;21132;48.308;14.274;2022-09-09T07:59:59;17.30;;;7.93;;
34926;SDS011;21132;48.308;14.274;2022-09-09T08:02:25;20.40;;;8.70;;
34926;SDS011;21132;48.308;14.274;2022-09-09T08:04:53;17.67;;;8.63;;
34926;SDS011;21132;48.308;14.274;2022-09-09T08:07:18;16.90;;;8.38;;
34926;SDS011;21132;48.308;14.274;2022-09-09T08:09:46;21.75;;;8.60;;
34926;SDS011;21132;48.308;14.274;2022-09-09T08:12:12;17.48;;;8.50;;
34926;SDS011;21132;48.308;14.274;2022-09-09T08:14:38;14.95;;;8.13;;
34926;SDS011;21132;48.308;14.274;2022-09-09T08:17:05;16.23;;;9.48;;
34926;SDS011;21132;48.308;14.274;2022-09-09T08:19:31;16.70;;;8.07;;
34926;SDS011;21132;48.308;14.274;2022-09-09T08:21:59;17.63;;;8.77;;
34926;SDS011;21132;48.308;14.274;2022-09-09T08:24:26;15.18;;;7.82;;
34926;SDS011;21132;48.308;14.274;2022-09-09T08:26:52;15.40;;;8.57;;
34926;SDS011;21132;48.308;14.274;2022-09-09T08:29:18;21.83;;;8.88;;
34926;SDS011;21132;48.308;14.274;2022-09-09T08:31:45;18.95;;;9.98;;
34926;SDS011;21132;48.308;14.274;2022-09-09T08:34:13;16.88;;;9.32;;
34926;SDS011;21132;48.308;14.274;2022-09-09T08:36:41;21.00;;;10.07;;
34926;SDS011;21132;48.308;14.274;2022-09-09T08:39:09;18.45;;;10.43;;
34926;SDS011;21132;48.308;14.274;2022-09-09T08:53:03;27.23;;;12.45;;
34926;SDS011;21132;48.308;14.274;2022-09-09T08:58:30;13.95;;;8.77;;
34926;SDS011;21132;48.308;14.274;2022-09-09T09:01:15;15.40;;;9.38;;
34926;SDS011;21132;48.308;14.274;2022-09-09T09:03:54;16.60;;;9.13;;
34926;SDS011;21132;48.308;14.274;2022-09-09T09:06:45;12.20;;;7.85;;
34926;SDS011;21132;48.308;14.274;2022-09-09T09:11:52;20.80;;;8.77;;
34926;SDS011;21132;48.308;14.274;2022-09-09T09:19:46;12.93;;;8.25;;
34926;SDS011;21132;48.308;14.274;2022-09-09T09:22:20;25.77;;;8.32;;
34926;SDS011;21132;48.308;14.274;2022-09-09T09:27:59;14.60;;;7.50;;
34926;SDS011;21132;48.308;14.274;2022-09-09T09:30:36;12.32;;;7.38;;
34926;SDS011;21132;48.308;14.274;2022-09-09T09:33:15;15.57;;;8.77;;
34926;SDS011;21132;48.308;14.274;2022-09-09T09:35:49;16.88;;;8.00;;
34926;SDS011;21132;48.308;14.274;2022-09-09T09:41:01;14.10;;;7.40;;
34926;SDS011;21132;48.308;14.274;2022-09-09T09:43:29;16.23;;;8.43;;
34926;SDS011;21132;48.308;14.274;2022-09-09T09:45:55;11.68;;;7.90;;
34926;SDS011;21132;48.308;14.274;2022-09-09T09:48:22;13.23;;;7.32;;
34926;SDS011;21132;48.308;14.274;2022-09-09T09:50:59;14.07;;;7.63;;
34926;SDS011;21132;48.308;14.274;2022-09-09T09:53:36;14.23;;;7.30;;
34926;SDS011;21132;48.308;14.274;2022-09-09T09:56:10;16.17;;;7.93;;
34926;SDS011;21132;48.308;14.274;2022-09-09T10:03:51;15.65;;;7.07;;
34926;SDS011;21132;48.308;14.274;2022-09-09T10:09:02;14.43;;;7.40;;
34926;SDS011;21132;48.308;14.274;2022-09-09T10:30:21;10.88;;;7.40;;
34926;SDS011;21132;48.308;14.274;2022-09-09T10:35:31;16.25;;;7.22;;
34926;SDS011;21132;48.308;14.274;2022-09-09T10:38:09;8.18;;;5.90;;
34926;SDS011;21132;48.308;14.274;2022-09-09T10:54:28;5.97;;;4.45;;
34926;SDS011;21132;48.308;14.274;2022-09-09T10:57:06;5.90;;;3.92;;
34926;SDS011;21132;48.308;14.274;2022-09-09T10:59:53;7.47;;;3.88;;
34926;SDS011;21132;48.308;14.274;2022-09-09T11:02:28;6.68;;;4.00;;
34926;SDS011;21132;48.308;14.274;2022-09-09T11:07:29;7.40;;;4.75;;
34926;SDS011;21132;48.308;14.274;2022-09-09T11:10:05;7.28;;;5.03;;
34926;SDS011;21132;48.308;14.274;2022-09-09T11:12:41;11.10;;;7.43;;
34926;SDS011;21132;48.308;14.274;2022-09-09T11:15:54;10.40;;;7.82;;
34926;SDS011;21132;48.308;14.274;2022-09-09T11:18:10;13.00;;;7.85;;
34926;SDS011;21132;48.308;14.274;2022-09-09T11:20:48;14.32;;;8.15;;
34926;SDS011;21132;48.308;14.274;2022-09-09T11:27:08;10.48;;;7.10;;
34926;SDS011;21132;48.308;14.274;2022-09-09T11:42:45;11.23;;;6.47;;
34926;SDS011;21132;48.308;14.274;2022-09-09T11:45:24;13.98;;;6.63;;
34926;SDS011;21132;48.308;14.274;2022-09-09T11:47:57;9.77;;;6.03;;
34926;SDS011;21132;48.308;14.274;2022-09-09T11:52:50;9.55;;;6.93;;
34926;SDS011;21132;48.308;14.274;2022-09-09T11:55:29;12.07;;;6.80;;
34926;SDS011;21132;48.308;14.274;2022-09-09T11:57:58;8.02;;;6.03;;
34926;SDS011;21132;48.308;14.274;2022-09-09T12:00:41;13.95;;;7.30;;
34926;SDS011;21132;48.308;14.274;2022-09-09T12:06:10;13.57;;;8.45;;
34926;SDS011;21132;48.308;14.274;2022-09-09T12:08:47;13.35;;;8.05;;
34926;SDS011;21132;48.308;14.274;2022-09-09T12:11:27;10.90;;;7.93;;
34926;SDS011;21132;48.308;14.274;2022-09-09T12:13:57;9.60;;;6.57;;
34926;SDS011;21132;48.308;14.274;2022-09-09T12:19:06;11.48;;;6.53;;
34926;SDS011;21132;48.308;14.274;2022-09-09T12:24:22;8.68;;;5.28;;
34926;SDS011;21132;48.308;14.274;2022-09-09T12:27:06;10.73;;;5.18;;
34926;SDS011;21132;48.308;14.274;2022-09-09T12:32:24;9.02;;;5.38;;
34926;SDS011;21132;48.308;14.274;2022-09-09T12:34:54;10.80;;;5.70;;
34926;SDS011;21132;48.308;14.274;2022-09-09T12:37:36;7.10;;;4.72;;
34926;SDS011;21132;48.308;14.274;2022-09-09T12:42:43;9.23;;;5.80;;
34926;SDS011;21132;48.308;14.274;2022-09-09T12:45:22;9.02;;;5.75;;
34926;SDS011;21132;48.308;14.274;2022-09-09T12:52:48;7.70;;;5.53;;
34926;SDS011;21132;48.308;14.274;2022-09-09T12:55:18;8.13;;;6.20;;
34926;SDS011;21132;48.308;14.274;2022-09-09T12:57:50;9.00;;;6.10;;
34926;SDS011;21132;48.308;14.274;2022-09-09T13:02:55;8.48;;;6.03;;
34926;SDS011;21132;48.308;14.274;2022-09-09T13:05:26;8.23;;;5.82;;
34926;SDS011;21132;48.308;14.274;2022-09-09T13:08:04;9.23;;;5.75;;
34926;SDS011;21132;48.308;14.274;2022-09-09T13:10:34;9.27;;;6.05;;
34926;SDS011;21132;48.308;14.274;2022-09-09T13:13:23;8.13;;;5.80;;
34926;SDS011;21132;48.308;14.274;2022-09-09T13:15:59;7.43;;;6.07;;
34926;SDS011;21132;48.308;14.274;2022-09-09T13:18:30;7.13;;;5.60;;
34926;SDS011;21132;48.308;14.274;2022-09-09T13:20:58;6.65;;;5.22;;
34926;SDS011;21132;48.308;14.274;2022-09-09T13:23:29;10.73;;;5.47;;
34926;SDS011;21132;48.308;14.274;2022-09-09T13:25:58;7.70;;;5.60;;
34926;SDS011;21132;48.308;14.274;2022-09-09T13:28:26;6.32;;;5.00;;
34926;SDS011;21132;48.308;14.274;2022-09-09T13:33:36;7.78;;;4.88;;
34926;SDS011;21132;48.308;14.274;2022-09-09T13:38:35;7.22;;;4.95;;
34926;SDS011;21132;48.308;14.274;2022-09-09T13:41:07;9.18;;;4.55;;
34926;SDS011;21132;48.308;14.274;2022-09-09T13:43:36;10.32;;;4.57;;
34926;SDS011;21132;48.308;14.274;2022-09-09T13:49:01;6.60;;;4.90;;
34926;SDS011;21132;48.308;14.274;2022-09-09T13:54:15;8.43;;;5.70;;
34926;SDS011;21132;48.308;14.274;2022-09-09T13:56:43;8.25;;;5.60;;
34926;SDS011;21132;48.308;14.274;2022-09-09T13:59:10;10.80;;;6.28;;
34926;SDS011;21132;48.308;14.274;2022-09-09T14:01:37;6.05;;;4.68;;
34926;SDS011;21132;48.308;14.274;2022-09-09T14:04:03;7.47;;;5.00;;
34926;SDS011;21132;48.308;14.274;2022-09-09T14:06:32;6.60;;;4.68;;
34926;SDS011;21132;48.308;14.274;2022-09-09T14:09:02;7.78;;;5.57;;
34926;SDS011;21132;48.308;14.274;2022-09-09T14:11:28;8.85;;;5.80;;
34926;SDS011;21132;48.308;14.274;2022-09-09T14:13:53;7.22;;;5.18;;
34926;SDS011;21132;48.308;14.274;2022-09-09T14:16:20;6.82;;;4.53;;
34926;SDS011;21132;48.308;14.274;2022-09-09T14:18:47;7.15;;;4.63;;
34926;SDS011;21132;48.308;14.274;2022-09-09T14:21:13;8.35;;;5.10;;
34926;SDS011;21132;48.308;14.274;2022-09-09T14:23:40;6.85;;;3.85;;
34926;SDS011;21132;48.308;14.274;2022-09-09T14:26:07;5.85;;;4.35;;
34926;SDS011;21132;48.308;14.274;2022-09-09T14:28:33;7.13;;;5.35;;
34926;SDS011;21132;48.308;14.274;2022-09-09T14:31:01;6.78;;;5.13;;
34926;SDS011;21132;48.308;14.274;2022-09-09T14:33:28;12.75;;;4.47;;
34926;SDS011;21132;48.308;14.274;2022-09-09T14:36:02;6.82;;;4.90;;
34926;SDS011;21132;48.308;14.274;2022-09-09T14:38:29;6.78;;;4.65;;
34926;SDS011;21132;48.308;14.274;2022-09-09T14:40:56;10.10;;;6.00;;
34926;SDS011;21132;48.308;14.274;2022-09-09T14:43:23;13.32;;;6.90;;
34926;SDS011;21132;48.308;14.274;2022-09-09T14:45:49;10.75;;;7.55;;
34926;SDS011;21132;48.308;14.274;2022-09-09T14:48:16;8.52;;;7.38;;
34926;SDS011;21132;48.308;14.274;2022-09-09T14:50:42;11.95;;;9.18;;
34926;SDS011;21132;48.308;14.274;2022-09-09T14:53:08;11.73;;;8.68;;
34926;SDS011;21132;48.308;14.274;2022-09-09T14:55:35;12.07;;;8.68;;
34926;SDS011;21132;48.308;14.274;2022-09-09T14:58:02;14.38;;;8.93;;
34926;SDS011;21132;48.308;14.274;2022-09-09T15:00:28;12.40;;;9.63;;
34926;SDS011;21132;48.308;14.274;2022-09-09T15:02:54;14.07;;;8.40;;
34926;SDS011;21132;48.308;14.274;2022-09-09T15:05:21;12.50;;;8.35;;
34926;SDS011;21132;48.308;14.274;2022-09-09T15:07:47;10.80;;;8.90;;
34926;SDS011;21132;48.308;14.274;2022-09-09T15:10:13;10.10;;;7.78;;
34926;SDS011;21132;48.308;14.274;2022-09-09T15:12:39;11.02;;;8.25;;
34926;SDS011;21132;48.308;14.274;2022-09-09T15:15:07;11.93;;;8.35;;
34926;SDS011;21132;48.308;14.274;2022-09-09T15:17:33;10.93;;;8.13;;
34926;SDS011;21132;48.308;14.274;2022-09-09T15:19:59;12.98;;;8.43;;
34926;SDS011;21132;48.308;14.274;2022-09-09T15:22:24;8.18;;;7.13;;
34926;SDS011;21132;48.308;14.274;2022-09-09T15:24:50;9.65;;;7.65;;
34926;SDS011;21132;48.308;14.274;2022-09-09T15:27:16;9.48;;;6.82;;
34926;SDS011;21132;48.308;14.274;2022-09-09T15:29:43;11.18;;;7.25;;
34926;SDS011;21132;48.308;14.274;2022-09-09T15:32:09;10.00;;;6.35;;
34926;SDS011;21132;48.308;14.274;2022-09-09T15:34:35;7.32;;;5.93;;
34926;SDS011;21132;48.308;14.274;2022-09-09T15:37:00;8.73;;;5.60;;
34926;SDS011;21132;48.308;14.274;2022-09-09T15:39:26;8.57;;;6.20;;
34926;SDS011;21132;48.308;14.274;2022-09-09T15:41:52;9.43;;;6.45;;
34926;SDS011;21132;48.308;14.274;2022-09-09T15:44:18;8.63;;;5.45;;
34926;SDS011;21132;48.308;14.274;2022-09-09T15:46:45;5.45;;;3.83;;
34926;SDS011;21132;48.308;14.274;2022-09-09T15:49:17;8.10;;;4.07;;
34926;SDS011;21132;48.308;14.274;2022-09-09T15:51:50;8.15;;;5.15;;
34926;SDS011;21132;48.308;14.274;2022-09-09T15:54:21;6.07;;;4.03;;
34926;SDS011;21132;48.308;14.274;2022-09-09T15:56:52;8.02;;;3.92;;
34926;SDS011;21132;48.308;14.274;2022-09-09T15:59:21;5.10;;;4.07;;
34926;SDS011;21132;48.308;14.274;2022-09-09T16:01:47;6.32;;;3.97;;
34926;SDS011;21132;48.308;14.274;2022-09-09T16:04:16;8.48;;;3.25;;
34926;SDS011;21132;48.308;14.274;2022-09-09T16:06:48;5.45;;;3.03;;
34926;SDS011;21132;48.308;14.274;2022-09-09T16:09:18;4.95;;;3.30;;
34926;SDS011;21132;48.308;14.274;2022-09-09T16:11:44;4.38;;;3.28;;
34926;SDS011;21132;48.308;14.274;2022-09-09T16:14:11;4.53;;;2.80;;
34926;SDS011;21132;48.308;14.274;2022-09-09T16:16:37;6.93;;;3.67;;
34926;SDS011;21132;48.308;14.274;2022-09-09T16:19:05;6.00;;;3.88;;
34926;SDS011;21132;48.308;14.274;2022-09-09T16:21:33;4.53;;;2.88;;
34926;SDS011;21132;48.308;14.274;2022-09-09T16:24:00;6.10;;;3.60;;
34926;SDS011;21132;48.308;14.274;2022-09-09T16:26:28;4.93;;;3.78;;
34926;SDS011;21132;48.308;14.274;2022-09-09T16:28:56;10.82;;;3.10;;
34926;SDS011;21132;48.308;14.274;2022-09-09T16:31:27;6.13;;;3.35;;
34926;SDS011;21132;48.308;14.274;2022-09-09T16:33:54;6.80;;;2.95;;
34926;SDS011;21132;48.308;14.274;2022-09-09T16:36:21;6.45;;;3.03;;
34926;SDS011;21132;48.308;14.274;2022-09-09T16:38:52;6.93;;;3.40;;
34926;SDS011;21132;48.308;14.274;2022-09-09T16:41:22;6.20;;;3.00;;
34926;SDS011;21132;48.308;14.274;2022-09-09T16:43:56;5.13;;;3.47;;
34926;SDS011;21132;48.308;14.274;2022-09-09T16:46:24;7.15;;;3.50;;
34926;SDS011;21132;48.308;14.274;2022-09-09T16:48:52;3.67;;;2.78;;
34926;SDS011;21132;48.308;14.274;2022-09-09T16:51:21;5.70;;;3.20;;
34926;SDS011;21132;48.308;14.274;2022-09-09T16:53:49;8.50;;;3.25;;
34926;SDS011;21132;48.308;14.274;2022-09-09T16:56:18;3.95;;;2.90;;
34926;SDS011;21132;48.308;14.274;2022-09-09T16:58:49;7.40;;;3.00;;
34926;SDS011;21132;48.308;14.274;2022-09-09T17:01:16;3.55;;;3.08;;
34926;SDS011;21132;48.308;14.274;2022-09-09T17:03:42;6.03;;;3.58;;
34926;SDS011;21132;48.308;14.274;2022-09-09T17:06:08;5.97;;;3.85;;
34926;SDS011;21132;48.308;14.274;2022-09-09T17:08:39;8.50;;;4.10;;
34926;SDS011;21132;48.308;14.274;2022-09-09T17:11:12;14.38;;;4.30;;
34926;SDS011;21132;48.308;14.274;2022-09-09T17:13:40;21.27;;;6.25;;
34926;SDS011;21132;48.308;14.274;2022-09-09T17:16:10;6.82;;;3.80;;
34926;SDS011;21132;48.308;14.274;2022-09-09T17:18:36;5.10;;;3.38;;
34926;SDS011;21132;48.308;14.274;2022-09-09T17:21:04;4.90;;;3.30;;
34926;SDS011;21132;48.308;14.274;2022-09-09T17:23:32;7.18;;;4.20;;
34926;SDS011;21132;48.308;14.274;2022-09-09T17:25:59;6.18;;;3.70;;
34926;SDS011;21132;48.308;14.274;2022-09-09T17:28:25;10.00;;;4.63;;
34926;SDS011;21132;48.308;14.274;2022-09-09T17:30:56;6.15;;;4.30;;
34926;SDS011;21132;48.308;14.274;2022-09-09T17:33:28;6.43;;;3.95;;
34926;SDS011;21132;48.308;14.274;2022-09-09T17:35:59;4.97;;;3.67;;
34926;SDS011;21132;48.308;14.274;2022-09-09T17:38:26;4.35;;;3.20;;
34926;SDS011;21132;48.308;14.274;2022-09-09T17:43:33;11.98;;;3.63;;
34926;SDS011;21132;48.308;14.274;2022-09-09T17:46:09;11.55;;;3.65;;
34926;SDS011;21132;48.308;14.274;2022-09-09T17:48:41;8.10;;;4.13;;
34926;SDS011;21132;48.308;14.274;2022-09-09T17:51:08;5.30;;;3.65;;
34926;SDS011;21132;48.308;14.274;2022-09-09T17:53:44;5.22;;;3.60;;
34926;SDS011;21132;48.308;14.274;2022-09-09T17:56:15;9.10;;;4.35;;